Time;durP1;ratioP1;P1;durP2;ratioP2;P2;SDS_P1;SDS_P2;PMS_P1;PMS_P2;Temp;Humidity;BMP_temperature;BMP_pressure;BME280_temperature;BME280_humidity;BME280_pressure;Samples;Min_cycle;Max_cycle;Signal;HPM_P1;HPM_P2
2023/04/18 00:00:56;;;;;;;19.38;8.27;;;;;;;10.26;100.00;99656.97;5106165;28;20032;-32
2023/04/18 00:03:21;;;;;;;15.30;8.63;;;;;;;10.09;100.00;99656.78;5106407;27;20039;-32
2023/04/18 00:05:49;;;;;;;15.93;8.52;;;;;;;10.02;100.00;99659.53;5106129;28;20049;-31
2023/04/18 00:08:14;;;;;;;14.32;8.48;;;;;;;10.01;100.00;99654.41;5105930;28;20050;-32
2023/04/18 00:10:40;;;;;;;16.10;8.60;;;;;;;10.37;100.00;99666.06;5105952;28;20032;-32
2023/04/18 00:13:06;;;;;;;15.32;8.27;;;;;;;10.16;100.00;99662.84;5105808;28;20050;-31
2023/04/18 00:15:34;;;;;;;16.27;8.60;;;;;;;10.13;100.00;99665.94;5105974;28;20031;-31
2023/04/18 00:18:04;;;;;;;19.02;9.20;;;;;;;10.11;100.00;99648.56;5105807;27;20032;-31
2023/04/18 00:20:30;;;;;;;15.95;8.05;;;;;;;10.09;100.00;99669.28;5105726;28;20734;-31
2023/04/18 00:22:56;;;;;;;15.05;7.93;;;;;;;10.04;100.00;99672.63;5105780;28;20110;-31
2023/04/18 00:25:22;;;;;;;20.35;8.80;;;;;;;10.08;100.00;99670.34;5105933;28;20144;-33
2023/04/18 00:27:48;;;;;;;19.33;9.13;;;;;;;10.30;100.00;99676.84;5106188;28;20031;-37
2023/04/18 00:30:14;;;;;;;18.02;8.70;;;;;;;10.23;100.00;99682.19;5105417;28;20036;-33
2023/04/18 00:32:39;;;;;;;17.77;8.85;;;;;;;10.19;100.00;99681.03;5105623;28;20054;-36
2023/04/18 00:35:05;;;;;;;16.38;8.65;;;;;;;10.30;100.00;99682.16;5105404;28;20107;-34
2023/04/18 00:37:31;;;;;;;17.00;7.85;;;;;;;10.10;100.00;99665.59;5105662;28;20034;-34
2023/04/18 00:39:56;;;;;;;18.27;8.40;;;;;;;10.36;100.00;99675.94;5105602;28;20061;-35
2023/04/18 00:42:23;;;;;;;16.30;7.95;;;;;;;10.12;100.00;99664.34;5105530;28;20047;-34
2023/04/18 00:44:48;;;;;;;20.17;8.85;;;;;;;10.12;100.00;99663.53;5105345;28;20027;-33
2023/04/18 00:47:16;;;;;;;18.60;9.85;;;;;;;9.99;100.00;99670.66;5104969;28;20038;-34
2023/04/18 00:49:43;;;;;;;17.58;8.75;;;;;;;10.03;100.00;99660.34;5105188;28;20033;-33
2023/04/18 00:52:11;;;;;;;19.60;9.02;;;;;;;10.04;100.00;99662.78;5105128;28;20035;-35
2023/04/18 00:54:38;;;;;;;20.77;8.75;;;;;;;10.20;100.00;99666.69;5105467;28;20016;-34
2023/04/18 00:57:04;;;;;;;19.08;9.40;;;;;;;9.97;100.00;99663.91;5105396;28;20085;-34
2023/04/18 00:59:32;;;;;;;19.00;8.35;;;;;;;9.88;100.00;99652.75;5104703;28;20028;-33
2023/04/18 01:01:57;;;;;;;18.98;9.85;;;;;;;10.03;100.00;99655.84;5105439;28;20042;-33
2023/04/18 01:04:23;;;;;;;15.75;8.30;;;;;;;10.04;100.00;99651.31;5105498;28;20035;-33
2023/04/18 01:06:48;;;;;;;17.00;8.88;;;;;;;10.04;100.00;99646.81;5105097;28;20808;-34
2023/04/18 01:09:14;;;;;;;20.48;8.82;;;;;;;10.08;100.00;99651.69;5105109;28;20024;-33
2023/04/18 01:11:40;;;;;;;16.90;8.70;;;;;;;10.13;100.00;99654.47;5105047;28;20026;-33
2023/04/18 01:14:07;;;;;;;18.95;8.93;;;;;;;10.18;100.00;99657.28;5105242;28;20028;-35
2023/04/18 01:16:33;;;;;;;17.33;7.97;;;;;;;10.17;100.00;99660.97;5105373;28;20031;-34
2023/04/18 01:18:59;;;;;;;16.17;8.00;;;;;;;10.17;100.00;99663.66;5105632;28;20027;-34
2023/04/18 01:21:25;;;;;;;17.15;8.30;;;;;;;10.02;100.00;99648.88;5105534;28;20052;-33
2023/04/18 01:23:52;;;;;;;19.30;9.25;;;;;;;9.77;100.00;99650.84;5105075;28;20092;-34
2023/04/18 01:26:18;;;;;;;19.27;8.43;;;;;;;10.01;100.00;99667.75;5105549;28;20788;-33
2023/04/18 01:28:44;;;;;;;17.38;8.57;;;;;;;9.88;100.00;99671.41;5105049;28;20523;-33
2023/04/18 01:31:09;;;;;;;16.23;7.88;;;;;;;9.67;100.00;99669.22;5105300;28;20039;-33
2023/04/18 01:33:35;;;;;;;20.70;8.63;;;;;;;9.82;100.00;99672.28;5104642;28;20745;-33
2023/04/18 01:36:00;;;;;;;16.02;7.95;;;;;;;9.79;100.00;99675.41;5105209;28;20762;-35
2023/04/18 01:38:26;;;;;;;22.42;8.68;;;;;;;9.80;100.00;99671.69;5104906;28;20431;-33
2023/04/18 01:40:51;;;;;;;15.13;7.97;;;;;;;9.92;100.00;99664.59;5104959;28;20092;-33
2023/04/18 01:43:17;;;;;;;14.80;7.85;;;;;;;9.85;100.00;99675.31;5104942;28;20046;-34
2023/04/18 01:45:42;;;;;;;16.02;8.55;;;;;;;9.86;100.00;99674.28;5105409;28;20023;-31
2023/04/18 01:48:07;;;;;;;17.23;8.13;;;;;;;9.67;100.00;99678.00;5105459;28;20024;-32
2023/04/18 01:50:33;;;;;;;17.48;8.20;;;;;;;9.92;100.00;99674.44;5105593;28;20122;-32
2023/04/18 01:52:58;;;;;;;14.23;8.15;;;;;;;9.98;100.00;99669.00;5105165;28;20543;-31
2023/04/18 01:55:23;;;;;;;16.90;8.00;;;;;;;9.89;100.00;99677.53;5104850;28;20089;-31
2023/04/18 01:57:49;;;;;;;17.08;8.50;;;;;;;9.79;100.00;99670.09;5105167;28;20024;-31
2023/04/18 02:00:15;;;;;;;19.83;7.97;;;;;;;9.83;100.00;99676.59;5108660;28;20031;-32
2023/04/18 02:02:41;;;;;;;15.52;7.60;;;;;;;9.77;100.00;99672.97;5108940;28;20032;-31
2023/04/18 02:05:07;;;;;;;15.73;7.72;;;;;;;9.79;100.00;99680.75;5108966;28;20015;-33
2023/04/18 02:07:32;;;;;;;15.57;8.77;;;;;;;9.62;100.00;99670.69;5108529;28;20436;-33
2023/04/18 02:09:57;;;;;;;16.40;9.27;;;;;;;9.87;100.00;99683.09;5108307;28;20028;-33
2023/04/18 02:12:23;;;;;;;15.90;8.18;;;;;;;9.93;100.00;99682.22;5108359;28;20062;-34
2023/04/18 02:14:52;;;;;;;17.08;8.65;;;;;;;9.91;100.00;99686.94;5107993;28;20062;-33
2023/04/18 02:17:24;;;;;;;17.95;8.60;;;;;;;10.22;100.00;99685.13;5108245;28;20084;-34
2023/04/18 02:19:50;;;;;;;18.17;8.50;;;;;;;10.00;100.00;99676.78;5108447;28;20016;-33
2023/04/18 02:22:16;;;;;;;19.35;9.25;;;;;;;9.96;100.00;99687.06;5108119;28;20072;-34
2023/04/18 02:24:42;;;;;;;19.80;11.63;;;;;;;9.97;100.00;99693.22;5108359;28;20034;-33
2023/04/18 02:27:08;;;;;;;26.08;18.63;;;;;;;10.14;100.00;99680.09;5107912;28;20031;-34
2023/04/18 02:29:33;;;;;;;27.20;19.05;;;;;;;10.13;100.00;99683.78;5107688;27;20428;-33
2023/04/18 02:31:58;;;;;;;28.20;19.17;;;;;;;10.21;100.00;99678.16;5108090;28;20027;-33
2023/04/18 02:34:24;;;;;;;26.98;20.63;;;;;;;10.25;100.00;99684.66;5107592;28;20047;-34
2023/04/18 02:36:50;;;;;;;23.67;14.75;;;;;;;10.12;100.00;99679.50;5108022;28;20028;-34
2023/04/18 02:39:15;;;;;;;28.60;21.48;;;;;;;10.22;100.00;99683.25;5107460;28;20096;-33
2023/04/18 02:41:40;;;;;;;31.00;17.73;;;;;;;10.27;100.00;99677.25;5108060;28;20020;-33
2023/04/18 02:44:07;;;;;;;27.65;14.48;;;;;;;10.34;100.00;99683.34;5108110;28;20024;-34
2023/04/18 02:46:32;;;;;;;17.38;10.98;;;;;;;10.29;100.00;99680.50;5107743;28;20099;-33
2023/04/18 02:48:58;;;;;;;19.70;8.60;;;;;;;10.35;100.00;99676.16;5107932;28;20456;-34
2023/04/18 02:51:25;;;;;;;21.42;9.32;;;;;;;10.12;100.00;99680.31;5107292;28;20103;-33
2023/04/18 02:53:53;;;;;;;27.75;16.42;;;;;;;10.26;100.00;99686.28;5107369;28;20027;-33
2023/04/18 02:56:20;;;;;;;19.60;9.98;;;;;;;10.22;100.00;99679.78;5107492;28;20059;-33
2023/04/18 02:58:46;;;;;;;18.65;9.48;;;;;;;10.21;100.00;99683.47;5107514;28;20030;-34
2023/04/18 03:01:11;;;;;;;22.08;10.40;;;;;;;10.30;100.00;99684.84;5107196;28;20020;-33
2023/04/18 03:03:37;;;;;;;20.67;11.57;;;;;;;10.20;100.00;99676.53;5108564;28;20027;-32
2023/04/18 03:06:02;;;;;;;18.35;10.57;;;;;;;10.03;100.00;99674.50;5107919;28;20016;-32
2023/04/18 03:08:28;;;;;;;24.65;13.07;;;;;;;10.18;100.00;99676.75;5107720;28;20034;-32
2023/04/18 03:10:55;;;;;;;17.90;10.63;;;;;;;10.37;100.00;99688.19;5107525;28;20051;-32
2023/04/18 03:13:20;;;;;;;17.35;8.30;;;;;;;10.19;100.00;99690.88;5108113;28;20036;-31
2023/04/18 03:15:46;;;;;;;17.50;9.07;;;;;;;10.13;100.00;99686.44;5107894;28;20034;-31
2023/04/18 03:18:11;;;;;;;14.93;8.57;;;;;;;10.25;100.00;99685.44;5106303;28;20467;-32
2023/04/18 03:20:37;;;;;;;17.63;9.48;;;;;;;10.50;100.00;99681.88;5108295;28;20032;-33
2023/04/18 03:23:02;;;;;;;14.18;8.23;;;;;;;10.42;100.00;99682.19;5107668;28;20019;-31
2023/04/18 03:25:28;;;;;;;15.73;8.70;;;;;;;10.44;100.00;99680.09;5107830;28;20020;-33
2023/04/18 03:27:53;;;;;;;17.40;8.00;;;;;;;10.25;100.00;99687.31;5107647;28;20061;-34
2023/04/18 03:30:19;;;;;;;13.32;8.27;;;;;;;10.25;100.00;99687.31;5107676;28;20030;-31
2023/04/18 03:32:45;;;;;;;18.08;9.32;;;;;;;10.22;100.00;99682.44;5107889;28;20152;-31
2023/04/18 03:35:10;;;;;;;17.15;10.27;;;;;;;10.19;100.00;99690.88;5107462;28;20020;-31
2023/04/18 03:37:36;;;;;;;15.02;6.85;;;;;;;10.31;100.00;99690.97;5108004;28;20016;-33
2023/04/18 03:40:04;;;;;;;17.92;8.98;;;;;;;10.24;100.00;99691.03;5107435;28;20080;-33
2023/04/18 03:42:29;;;;;;;19.15;10.90;;;;;;;10.44;100.00;99699.59;5107632;28;20031;-33
2023/04/18 03:44:55;;;;;;;25.20;15.00;;;;;;;10.08;100.00;99681.00;5107171;28;20024;-32
2023/04/18 03:47:20;;;;;;;16.42;11.15;;;;;;;10.14;100.00;99702.22;5107797;28;20032;-32
2023/04/18 03:49:45;;;;;;;29.42;18.92;;;;;;;10.15;100.00;99700.38;5107304;28;20031;-33
2023/04/18 03:52:11;;;;;;;26.55;16.70;;;;;;;10.25;100.00;99696.13;5107457;28;20035;-33
2023/04/18 03:54:36;;;;;;;36.13;18.88;;;;;;;10.32;100.00;99704.06;5107488;28;20593;-32
2023/04/18 03:57:02;;;;;;;40.28;20.45;;;;;;;10.30;100.00;99703.50;5107022;28;20034;-32
2023/04/18 03:59:28;;;;;;;44.58;24.23;;;;;;;10.29;100.00;99701.81;5107381;28;20031;-32
2023/04/18 04:01:53;;;;;;;26.63;15.80;;;;;;;10.24;100.00;99697.16;5107151;27;20085;-32
2023/04/18 04:04:18;;;;;;;27.48;15.35;;;;;;;10.29;100.00;99723.13;5106923;28;20043;-34
2023/04/18 04:06:44;;;;;;;29.38;15.70;;;;;;;10.05;100.00;99717.72;5106638;28;20109;-31
2023/04/18 04:09:09;;;;;;;25.58;12.20;;;;;;;10.05;100.00;99709.72;5107164;28;20038;-34
2023/04/18 04:11:35;;;;;;;34.40;17.35;;;;;;;10.22;100.00;99701.09;5107030;28;20104;-33
2023/04/18 04:14:01;;;;;;;41.30;19.85;;;;;;;10.16;100.00;99718.78;5107139;28;20050;-33
2023/04/18 04:16:27;;;;;;;46.88;23.45;;;;;;;10.09;100.00;99711.91;5106810;28;20055;-33
2023/04/18 04:18:52;;;;;;;23.77;13.38;;;;;;;10.15;100.00;99706.50;5106694;28;20032;-32
2023/04/18 04:21:17;;;;;;;35.65;15.95;;;;;;;10.06;100.00;99714.00;5106222;28;20025;-32
2023/04/18 04:23:45;;;;;;;34.65;19.15;;;;;;;10.11;100.00;99720.50;5106511;28;20462;-33
2023/04/18 04:26:10;;;;;;;34.67;19.25;;;;;;;9.97;100.00;99715.34;5106779;28;20401;-32
2023/04/18 04:28:38;;;;;;;41.65;23.25;;;;;;;9.95;100.00;99727.25;5106394;28;20039;-33
2023/04/18 04:31:08;;;;;;;24.38;12.80;;;;;;;10.06;100.00;99724.66;5107002;28;20039;-32
2023/04/18 04:33:34;;;;;;;29.60;16.42;;;;;;;10.08;100.00;99726.28;5104375;28;20313;-32
2023/04/18 04:36:00;;;;;;;27.70;14.38;;;;;;;10.03;100.00;99717.13;5098372;28;20164;-32
2023/04/18 04:38:26;;;;;;;17.92;10.15;;;;;;;10.10;100.00;99729.53;5101944;28;20056;-33
2023/04/18 04:40:51;;;;;;;27.73;16.23;;;;;;;10.17;100.00;99735.59;5105787;28;20067;-32
2023/04/18 04:43:19;;;;;;;22.60;11.80;;;;;;;10.00;100.00;99730.88;5106342;28;20031;-32
2023/04/18 04:45:48;;;;;;;22.13;11.17;;;;;;;10.09;100.00;99738.56;5106397;28;20019;-33
2023/04/18 04:48:14;;;;;;;19.80;10.77;;;;;;;10.13;100.00;99739.75;5106295;28;20055;-33
2023/04/18 04:50:40;;;;;;;22.23;10.98;;;;;;;10.13;100.00;99734.41;5106532;28;20028;-32
2023/04/18 04:53:07;;;;;;;18.27;10.43;;;;;;;10.28;100.00;99748.19;5106308;28;20020;-32
2023/04/18 04:55:33;;;;;;;15.75;9.25;;;;;;;10.22;100.00;99749.06;5106701;28;20027;-32
2023/04/18 04:57:58;;;;;;;18.58;8.93;;;;;;;10.12;100.00;99748.78;5106204;28;20313;-34
2023/04/18 05:00:24;;;;;;;21.15;9.63;;;;;;;10.37;100.00;99752.19;5106245;28;20800;-32
2023/04/18 05:02:54;;;;;;;20.58;9.40;;;;;;;10.33;100.00;99750.19;5106409;28;20020;-33
2023/04/18 05:05:19;;;;;;;15.02;8.90;;;;;;;10.36;100.00;99753.22;5106079;28;20026;-33
2023/04/18 05:07:45;;;;;;;19.13;9.57;;;;;;;10.40;100.00;99751.75;5105968;28;20036;-32
2023/04/18 05:10:10;;;;;;;22.02;9.98;;;;;;;10.35;100.00;99751.59;5105963;28;20419;-33
2023/04/18 05:12:36;;;;;;;17.75;9.63;;;;;;;10.23;100.00;99756.81;5106303;28;20074;-32
2023/04/18 05:15:02;;;;;;;18.15;9.57;;;;;;;10.51;100.00;99752.81;5106123;28;20506;-32
2023/04/18 05:17:27;;;;;;;17.70;9.13;;;;;;;10.72;100.00;99758.69;5106132;28;20465;-33
2023/04/18 05:19:53;;;;;;;16.73;8.77;;;;;;;10.72;100.00;99759.50;5105864;28;20428;-32
2023/04/18 05:22:18;;;;;;;17.83;9.52;;;;;;;10.57;100.00;99753.78;5105988;28;20423;-32
2023/04/18 05:24:45;;;;;;;19.80;9.65;;;;;;;10.64;100.00;99751.81;5105707;28;20044;-33
2023/04/18 05:27:12;;;;;;;18.98;9.65;;;;;;;10.70;100.00;99745.56;5106028;28;20076;-34
2023/04/18 05:29:38;;;;;;;18.48;9.95;;;;;;;10.87;100.00;99751.09;5105902;28;20408;-32
2023/04/18 05:32:03;;;;;;;18.58;10.48;;;;;;;10.67;100.00;99755.91;5106499;28;20488;-33
2023/04/18 05:34:29;;;;;;;18.92;10.65;;;;;;;10.58;100.00;99753.56;5109918;28;20081;-32
2023/04/18 05:36:55;;;;;;;17.15;10.00;;;;;;;10.68;100.00;99752.97;5109924;28;20677;-33
2023/04/18 05:39:21;;;;;;;18.05;9.00;;;;;;;10.92;100.00;99747.72;5109950;28;20019;-33
2023/04/18 05:41:46;;;;;;;22.55;10.23;;;;;;;10.93;100.00;99736.00;5109854;27;20032;-34
2023/04/18 05:44:12;;;;;;;15.65;10.95;;;;;;;10.85;100.00;99763.84;5109800;28;20023;-32
2023/04/18 05:46:37;;;;;;;20.95;13.45;;;;;;;10.71;100.00;99762.41;5109630;28;20419;-32
2023/04/18 05:49:03;;;;;;;29.10;17.65;;;;;;;10.69;100.00;99754.63;5109499;28;20035;-32
2023/04/18 05:51:30;;;;;;;42.22;26.10;;;;;;;10.95;100.00;99760.59;5109543;28;20031;-32
2023/04/18 05:53:55;;;;;;;23.95;15.52;;;;;;;10.82;100.00;99765.09;5109500;28;20118;-32
2023/04/18 05:56:20;;;;;;;18.00;9.80;;;;;;;10.70;100.00;99750.09;5109109;28;20088;-32
2023/04/18 05:58:46;;;;;;;16.58;9.63;;;;;;;10.81;100.00;99758.13;5109403;28;20142;-32
2023/04/18 06:01:13;;;;;;;28.98;18.30;;;;;;;10.73;100.00;99760.31;5109592;28;20030;-32
2023/04/18 06:03:40;;;;;;;24.20;15.68;;;;;;;10.76;100.00;99758.00;5109356;28;20972;-32
2023/04/18 06:06:06;;;;;;;18.48;13.93;;;;;;;10.95;100.00;99763.25;5108969;27;20038;-33
2023/04/18 06:08:31;;;;;;;16.80;8.75;;;;;;;10.89;100.00;99748.16;5109140;28;20023;-36
2023/04/18 06:10:56;;;;;;;16.27;8.80;;;;;;;10.99;100.00;99743.09;5109337;28;20039;-35
2023/04/18 06:13:22;;;;;;;15.10;8.57;;;;;;;11.07;100.00;99758.75;5108909;28;20028;-33
2023/04/18 06:15:47;;;;;;;16.35;9.25;;;;;;;10.95;100.00;99757.94;5108842;28;20023;-34
2023/04/18 06:18:13;;;;;;;14.02;7.82;;;;;;;11.08;100.00;99765.75;5109052;28;20481;-32
2023/04/18 06:20:38;;;;;;;16.08;8.60;;;;;;;11.16;100.00;99759.25;5109078;28;20087;-32
2023/04/18 06:23:04;;;;;;;17.10;9.10;;;;;;;11.38;100.00;99752.31;5108805;28;20028;-33
2023/04/18 06:25:29;;;;;;;17.55;10.50;;;;;;;11.64;100.00;99752.88;5108647;28;20151;-33
2023/04/18 06:27:54;;;;;;;18.40;11.05;;;;;;;11.34;100.00;99740.47;5109183;28;20084;-32
2023/04/18 06:30:20;;;;;;;17.75;9.68;;;;;;;11.51;100.00;99750.47;5108621;28;20039;-32
2023/04/18 06:32:46;;;;;;;14.45;8.23;;;;;;;11.59;100.00;99747.44;5108241;28;20101;-33
2023/04/18 06:35:12;;;;;;;22.52;12.65;;;;;;;11.62;100.00;99750.44;5108413;28;20032;-31
2023/04/18 06:37:38;;;;;;;16.70;8.70;;;;;;;11.43;100.00;99738.25;5106721;28;20067;-32
2023/04/18 06:40:04;;;;;;;17.30;8.52;;;;;;;11.35;100.00;99741.28;5099807;28;20037;-33
2023/04/18 06:42:29;;;;;;;14.35;8.02;;;;;;;11.60;100.00;99747.19;5098743;28;20094;-34
2023/04/18 06:44:55;;;;;;;16.73;8.55;;;;;;;11.95;100.00;99746.38;5107997;28;20040;-33
2023/04/18 06:47:21;;;;;;;16.48;9.65;;;;;;;12.20;100.00;99745.28;5108302;27;20123;-34
2023/04/18 06:49:47;;;;;;;16.80;9.48;;;;;;;12.61;100.00;99740.69;5108670;27;20029;-32
2023/04/18 06:52:12;;;;;;;14.93;8.07;;;;;;;12.48;100.00;99730.28;5108296;27;20020;-32
2023/04/18 06:54:37;;;;;;;14.75;7.97;;;;;;;12.83;100.00;99740.78;5108352;28;20038;-34
2023/04/18 06:57:03;;;;;;;14.90;8.02;;;;;;;13.13;100.00;99739.69;5108233;27;20031;-33
2023/04/18 06:59:28;;;;;;;14.30;8.18;;;;;;;12.94;100.00;99741.78;5108132;27;20059;-33
2023/04/18 07:01:54;;;;;;;11.98;7.15;;;;;;;13.11;100.00;99747.16;5108072;27;20388;-32
2023/04/18 07:04:19;;;;;;;14.80;7.50;;;;;;;13.32;100.00;99735.75;5107982;27;20024;-32
2023/04/18 07:06:45;;;;;;;13.13;8.52;;;;;;;13.58;100.00;99736.91;5107837;28;20043;-33
2023/04/18 07:09:10;;;;;;;14.32;8.35;;;;;;;13.55;100.00;99741.97;5107926;28;20024;-33
2023/04/18 07:11:36;;;;;;;14.77;8.70;;;;;;;14.02;100.00;99741.50;5108081;28;20027;-32
2023/04/18 07:14:01;;;;;;;13.57;7.97;;;;;;;14.48;100.00;99736.66;5140666;27;20039;-33
2023/04/18 07:16:26;;;;;;;14.20;8.55;;;;;;;14.83;96.17;99746.16;5108271;27;20472;-31
2023/04/18 07:18:52;;;;;;;14.18;8.82;;;;;;;14.71;99.14;99748.19;5107559;28;20035;-32
2023/04/18 07:21:18;;;;;;;14.00;8.85;;;;;;;14.68;97.84;99744.13;5107887;27;20023;-32
2023/04/18 07:23:43;;;;;;;13.80;8.48;;;;;;;14.93;100.00;99734.69;5107840;28;20482;-31
2023/04/18 07:26:10;;;;;;;13.88;9.38;;;;;;;15.09;94.34;99732.94;5107637;28;20023;-32
2023/04/18 07:28:35;;;;;;;14.05;8.85;;;;;;;14.79;94.08;99724.41;5107874;27;20027;-32
2023/04/18 07:31:02;;;;;;;12.70;8.32;;;;;;;14.95;93.91;99728.00;5107538;28;20035;-31
2023/04/18 07:33:30;;;;;;;14.57;8.88;;;;;;;14.77;97.60;99713.09;5107772;27;20065;-32
2023/04/18 07:35:56;;;;;;;16.17;9.13;;;;;;;15.13;94.76;99728.69;5107373;27;20034;-31
2023/04/18 07:38:21;;;;;;;14.85;9.52;;;;;;;15.67;93.11;99728.47;5107608;27;20039;-33
2023/04/18 07:40:55;;;;;;;15.93;9.27;;;;;;;15.42;91.47;99718.41;5107314;28;20469;-32
2023/04/18 07:43:20;;;;;;;15.80;9.82;;;;;;;14.89;92.28;99723.66;5107344;27;20492;-33
2023/04/18 07:45:46;;;;;;;16.13;10.25;;;;;;;15.28;89.40;99726.09;5107217;27;20023;-31
2023/04/18 07:48:13;;;;;;;13.63;10.05;;;;;;;15.40;87.91;99729.41;5107674;28;20098;-32
2023/04/18 07:50:39;;;;;;;13.53;9.63;;;;;;;15.01;88.72;99720.81;5107229;28;20107;-31
2023/04/18 07:53:05;;;;;;;16.23;10.30;;;;;;;14.82;88.95;99725.75;5107557;27;20493;-32
2023/04/18 07:55:30;;;;;;;18.58;10.43;;;;;;;15.18;89.81;99737.59;5106769;28;20055;-32
2023/04/18 07:57:56;;;;;;;14.98;9.00;;;;;;;15.44;86.74;99751.19;5107228;28;20015;-33
2023/04/18 08:00:21;;;;;;;14.65;9.15;;;;;;;15.41;85.94;99740.97;5106755;28;20020;-31
2023/04/18 08:02:47;;;;;;;13.70;9.20;;;;;;;15.43;85.70;99733.47;5106915;28;20024;-32
2023/04/18 08:05:12;;;;;;;11.60;8.55;;;;;;;15.63;82.81;99746.19;5106635;28;20058;-31
2023/04/18 08:07:37;;;;;;;12.95;8.57;;;;;;;15.72;82.72;99744.69;5106742;28;20036;-32
2023/04/18 08:10:03;;;;;;;12.70;8.18;;;;;;;15.88;79.75;99753.66;5107013;27;20033;-31
2023/04/18 08:12:29;;;;;;;13.68;8.68;;;;;;;15.81;83.14;99761.97;5106954;27;20521;-32
2023/04/18 08:14:54;;;;;;;11.75;8.05;;;;;;;15.29;85.98;99754.59;5106799;28;20863;-31
2023/04/18 08:17:21;;;;;;;11.32;8.38;;;;;;;15.50;84.77;99744.78;5106716;27;20051;-32
2023/04/18 08:19:47;;;;;;;12.55;9.02;;;;;;;15.39;87.13;99751.19;5106615;27;20594;-32
2023/04/18 08:22:12;;;;;;;14.13;8.95;;;;;;;15.02;92.35;99750.09;5106581;27;20032;-31
2023/04/18 08:24:38;;;;;;;15.35;9.43;;;;;;;14.60;94.33;99758.00;5106815;28;20035;-35
2023/04/18 08:27:04;;;;;;;10.60;7.10;;;;;;;14.46;91.78;99758.41;5106497;28;20024;-32
2023/04/18 08:29:30;;;;;;;12.70;8.55;;;;;;;14.40;93.97;99758.56;5106389;27;20076;-32
2023/04/18 08:31:55;;;;;;;16.70;9.85;;;;;;;14.21;93.57;99758.09;5106477;28;20020;-32
2023/04/18 08:34:20;;;;;;;17.77;9.68;;;;;;;13.89;96.95;99737.31;5106400;27;20139;-32
2023/04/18 08:36:46;;;;;;;15.43;9.45;;;;;;;14.13;96.65;99758.53;5106465;27;20028;-31
2023/04/18 08:39:12;;;;;;;13.65;9.07;;;;;;;14.09;96.72;99762.78;5106073;28;20141;-32
2023/04/18 08:41:41;;;;;;;14.40;8.65;;;;;;;13.86;95.32;99759.28;5099177;28;20042;-32
2023/04/18 08:44:07;;;;;;;17.10;10.73;;;;;;;13.97;98.77;99750.28;5102134;27;20050;-31
2023/04/18 08:46:34;;;;;;;18.15;11.93;;;;;;;13.80;99.38;99755.69;5101400;28;20081;-32
2023/04/18 08:49:03;;;;;;;18.55;10.70;;;;;;;13.81;99.40;99756.50;5092364;28;20088;-31
2023/04/18 08:51:31;;;;;;;17.58;11.35;;;;;;;13.49;100.00;99743.75;5085690;28;20031;-33
2023/04/18 08:54:03;;;;;;;19.30;11.35;;;;;;;13.49;100.00;99757.16;5085933;28;20027;-31
2023/04/18 08:56:29;;;;;;;19.42;10.98;;;;;;;13.12;100.00;99760.31;5085902;28;20040;-32
2023/04/18 08:58:58;;;;;;;19.98;13.30;;;;;;;13.05;100.00;99759.63;5085723;28;20028;-31
2023/04/18 09:01:57;;;;;;;19.17;11.40;;;;;;;13.09;100.00;99766.13;5086142;28;20077;-31
2023/04/18 09:04:51;;;;;;;17.35;11.88;;;;;;;13.32;100.00;99767.06;5085922;28;20024;-33
2023/04/18 09:07:18;;;;;;;18.17;12.65;;;;;;;13.34;100.00;99764.94;5085057;28;20047;-31
2023/04/18 09:09:52;;;;;;;21.52;14.05;;;;;;;13.09;100.00;99754.63;5085231;28;20081;-31
2023/04/18 09:12:21;;;;;;;20.17;13.38;;;;;;;13.36;100.00;99744.09;5085660;28;20432;-33
2023/04/18 09:14:50;;;;;;;18.08;12.00;;;;;;;13.22;100.00;99741.72;5085898;28;20032;-32
2023/04/18 09:17:36;;;;;;;19.95;12.68;;;;;;;13.25;100.00;99730.50;5085595;28;20123;-32
2023/04/18 09:20:04;;;;;;;24.35;16.30;;;;;;;13.55;100.00;99731.25;5085541;28;20058;-32
2023/04/18 09:22:50;;;;;;;23.65;13.93;;;;;;;13.69;100.00;99721.81;5085641;28;20082;-32
2023/04/18 09:25:28;;;;;;;31.73;21.70;;;;;;;13.81;100.00;99713.63;5085930;28;20024;-32
2023/04/18 09:27:59;;;;;;;35.95;24.95;;;;;;;13.95;100.00;99714.88;5085449;28;20528;-32
2023/04/18 09:30:35;;;;;;;26.15;17.10;;;;;;;14.16;100.00;99712.44;5085445;28;20493;-31
2023/04/18 09:33:02;;;;;;;22.25;13.27;;;;;;;14.16;100.00;99723.16;5085584;28;20540;-33
2023/04/18 09:35:28;;;;;;;27.85;17.33;;;;;;;14.15;100.00;99724.22;5085532;28;20036;-32
2023/04/18 09:37:54;;;;;;;28.33;17.00;;;;;;;13.99;100.00;99721.34;5085470;28;20081;-32
2023/04/18 09:40:20;;;;;;;29.13;18.15;;;;;;;14.00;100.00;99728.34;5085309;28;20104;-32
2023/04/18 09:42:47;;;;;;;24.33;16.13;;;;;;;13.72;100.00;99737.38;5085199;28;20416;-31
2023/04/18 09:45:12;;;;;;;24.52;16.17;;;;;;;13.82;100.00;99736.69;5085669;28;20036;-32
2023/04/18 09:47:38;;;;;;;22.63;14.55;;;;;;;13.62;100.00;99748.75;5085257;28;20036;-32
2023/04/18 09:50:06;;;;;;;21.75;14.02;;;;;;;13.24;100.00;99761.03;5085025;28;20111;-33
2023/04/18 09:52:34;;;;;;;22.52;14.73;;;;;;;13.05;100.00;99759.63;5085508;28;20028;-32
2023/04/18 09:55:03;;;;;;;24.05;14.57;;;;;;;12.98;100.00;99764.34;5085278;28;20039;-34
2023/04/18 09:57:30;;;;;;;25.95;14.98;;;;;;;13.24;100.00;99765.59;5085265;28;20424;-34
2023/04/18 10:00:13;;;;;;;22.63;13.38;;;;;;;13.16;100.00;99772.16;5085285;28;20032;-32
2023/04/18 10:02:50;;;;;;;23.95;14.63;;;;;;;13.33;100.00;99772.16;5085559;28;20063;-34
2023/04/18 10:05:17;;;;;;;24.42;14.45;;;;;;;12.99;100.00;99765.97;5085063;28;20850;-32
2023/04/18 10:07:45;;;;;;;24.95;15.10;;;;;;;12.97;100.00;99790.28;5085116;28;20044;-33
2023/04/18 10:10:12;;;;;;;24.17;14.10;;;;;;;12.97;100.00;99779.56;5085448;28;20111;-32
2023/04/18 10:12:38;;;;;;;22.85;14.05;;;;;;;12.82;100.00;99782.00;5085101;28;20058;-32
2023/04/18 10:15:05;;;;;;;25.88;15.88;;;;;;;13.13;100.00;99755.75;5085470;28;20024;-34
2023/04/18 10:17:42;;;;;;;21.58;14.38;;;;;;;13.42;100.00;99749.28;5084971;28;20020;-32
2023/04/18 10:20:14;;;;;;;22.58;14.55;;;;;;;13.66;100.00;99755.25;5087320;28;20479;-33
2023/04/18 10:22:39;;;;;;;29.75;18.70;;;;;;;13.70;100.00;99757.44;5088655;28;20419;-33
2023/04/18 10:25:05;;;;;;;39.38;28.38;;;;;;;14.00;100.00;99749.81;5088770;28;20548;-32
2023/04/18 10:27:56;;;;;;;31.25;18.10;;;;;;;14.43;100.00;99740.09;5088522;28;20052;-32
2023/04/18 10:30:44;;;;;;;164.35;147.68;;;;;;;14.85;100.00;99735.97;5079647;28;20521;-33
2023/04/18 10:33:33;;;;;;;26.15;16.25;;;;;;;14.88;100.00;99743.53;5088443;28;20032;-32
2023/04/18 10:36:11;;;;;;;24.52;15.90;;;;;;;14.62;100.00;99755.88;5088579;28;20059;-32
2023/04/18 10:38:45;;;;;;;22.05;14.38;;;;;;;14.31;100.00;99755.53;5088445;28;20032;-32
2023/04/18 10:41:25;;;;;;;20.90;13.18;;;;;;;14.22;100.00;99748.97;5088485;28;20266;-34
2023/04/18 10:44:06;;;;;;;24.25;15.15;;;;;;;14.66;100.00;99767.75;5088494;28;20501;-33
2023/04/18 10:46:33;;;;;;;24.23;15.18;;;;;;;14.53;100.00;99768.13;5091772;28;20067;-32
2023/04/18 10:49:30;;;;;;;19.17;11.70;;;;;;;13.96;100.00;99780.03;5097114;28;20028;-34
2023/04/18 10:51:57;;;;;;;;;;;;;;;13.55;100.00;99766.88;5054409;28;20032;-33
2023/04/18 10:55:09;;;;;;;18.02;11.80;;;;;;;13.55;100.00;99760.72;5088206;28;19912;-32
2023/04/18 10:57:43;;;;;;;21.33;12.23;;;;;;;13.41;100.00;99744.16;5025195;28;20784;-33
2023/04/18 11:00:11;;;;;;;18.08;11.70;;;;;;;13.51;100.00;99738.97;5025204;28;20044;-33
2023/04/18 11:02:37;;;;;;;20.35;12.70;;;;;;;13.64;100.00;99746.63;5062009;28;20043;-34
2023/04/18 11:05:05;;;;;;;21.77;13.23;;;;;;;13.82;100.00;99744.75;5087973;28;20823;-32
2023/04/18 11:07:47;;;;;;;19.05;12.40;;;;;;;13.89;100.00;99742.66;5087503;28;20097;-33
2023/04/18 11:10:19;;;;;;;21.85;12.43;;;;;;;13.82;100.00;99744.75;5087593;28;20552;-32
2023/04/18 11:12:44;;;;;;;22.65;13.48;;;;;;;14.05;100.00;99741.81;5097759;27;20020;-33
2023/04/18 11:15:20;;;;;;;22.45;15.10;;;;;;;14.12;100.00;99724.72;5123773;27;20092;-33
2023/04/18 11:17:53;;;;;;;23.13;16.73;;;;;;;14.37;100.00;99734.94;5109242;27;20499;-32